Mcmasterville, Canada
Current Conditions -  °F | °C
As of 7:09 AM on Sunday 21 Dec 2014 (Local Time) from CYHU Reporting Station
Light Snow Light Snow  
Wind Chill: 12°   Ceiling: 900
Heat Index: 12°   Visibility: 1.7mi
Dew Point: 10°   Wind: 2mph
Humidity: 92%   Direction: 130°SE
Pressure: 30.39"   Gusts: NA
Location:  45.55°N, 73.23°W
Report Text: CYHU 211209Z AUTO 13002KT 1 3/4SM -SN OVC009 M11/M12 A3039 RMK SLP293
Loading
Personal Weather Stations






























Interactive Weather Map New forecast layout! Learn more

10-Day Weather Forecast

Advertisements
Track Severe Weather on mobile